sensor_id;sensor_type;location;lat;lon;timestamp;pressure;altitude;pressure_sealevel;temperature;humidity
60427;BME280;46274;47.168;27.604;2023-09-08T00:12:06;100807.41;;;17.73;68.36
60427;BME280;46274;47.168;27.604;2023-09-08T00:58:58;100805.28;;;16.64;71.66
60427;BME280;46274;47.168;27.604;2023-09-08T01:05:02;100807.97;;;16.78;70.56
60427;BME280;46274;47.168;27.604;2023-09-08T01:26:17;100698.50;;;15.73;71.78
60427;BME280;46274;47.168;27.604;2023-09-08T02:02:15;100808.72;;;16.01;72.78
60427;BME280;46274;47.168;27.604;2023-09-08T02:22:43;100702.94;;;14.33;77.88
60427;BME280;46274;47.168;27.604;2023-09-08T02:51:39;100684.72;;;14.64;74.23
60427;BME280;46274;47.168;27.604;2023-09-08T02:58:34;100456.41;;;13.32;72.89
60427;BME280;46274;47.168;27.604;2023-09-08T03:57:54;100809.97;;;14.04;77.92
60427;BME280;46274;47.168;27.604;2023-09-08T04:04:21;100709.44;;;14.09;72.93
60427;BME280;46274;47.168;27.604;2023-09-08T04:10:23;100665.16;;;13.92;72.19
60427;BME280;46274;47.168;27.604;2023-09-08T04:16:30;100603.72;;;13.29;72.91
60427;BME280;46274;47.168;27.604;2023-09-08T04:22:34;100690.22;;;13.65;74.49
60427;BME280;46274;47.168;27.604;2023-09-08T04:44:03;100574.31;;;13.47;74.04
60427;BME280;46274;47.168;27.604;2023-09-08T05:20:12;100672.41;;;14.53;81.62
60427;BME280;46274;47.168;27.604;2023-09-08T05:33:34;100602.97;;;15.00;78.10
60427;BME280;46274;47.168;27.604;2023-09-08T05:39:40;100733.09;;;16.08;79.01
60427;BME280;46274;47.168;27.604;2023-09-08T05:46:30;100831.38;;;17.16;77.20
60427;BME280;46274;47.168;27.604;2023-09-08T05:52:42;100692.53;;;16.40;77.08
60427;BME280;46274;47.168;27.604;2023-09-08T05:58:53;100564.34;;;16.24;73.37
60427;BME280;46274;47.168;27.604;2023-09-08T06:05:13;100730.56;;;17.39;72.59
60427;BME280;46274;47.168;27.604;2023-09-08T07:33:14;100538.50;;;18.92;57.41
60427;BME280;46274;47.168;27.604;2023-09-08T07:40:01;100632.09;;;19.68;55.64
60427;BME280;46274;47.168;27.604;2023-09-08T08:01:16;100546.22;;;20.34;54.32
60427;BME280;46274;47.168;27.604;2023-09-08T08:29:55;100498.50;;;20.89;49.46
60427;BME280;46274;47.168;27.604;2023-09-08T08:36:36;100580.00;;;21.69;47.44
60427;BME280;46274;47.168;27.604;2023-09-08T08:43:40;100563.41;;;21.57;43.58
60427;BME280;46274;47.168;27.604;2023-09-08T09:39:11;100536.44;;;23.73;39.39
60427;BME280;46274;47.168;27.604;2023-09-08T09:52:19;100559.28;;;23.35;38.51
60427;BME280;46274;47.168;27.604;2023-09-08T11:46:10;100670.91;;;26.28;31.65
60427;BME280;46274;47.168;27.604;2023-09-08T14:17:47;100490.03;;;26.97;28.39
60427;BME280;46274;47.168;27.604;2023-09-08T14:23:49;100484.50;;;27.95;29.66
60427;BME280;46274;47.168;27.604;2023-09-08T14:29:50;100451.66;;;27.71;26.73
60427;BME280;46274;47.168;27.604;2023-09-08T14:35:52;100473.47;;;26.45;28.65
60427;BME280;46274;47.168;27.604;2023-09-08T14:41:55;100466.53;;;28.32;30.11
60427;BME280;46274;47.168;27.604;2023-09-08T14:48:00;100460.53;;;26.81;28.45
60427;BME280;46274;47.168;27.604;2023-09-08T14:54:02;100454.91;;;28.19;28.90
60427;BME280;46274;47.168;27.604;2023-09-08T15:00:11;100454.47;;;27.40;29.23
60427;BME280;46274;47.168;27.604;2023-09-08T15:06:17;100422.19;;;27.09;29.89
60427;BME280;46274;47.168;27.604;2023-09-08T15:12:29;100392.59;;;26.31;29.40
60427;BME280;46274;47.168;27.604;2023-09-08T15:18:31;100448.88;;;27.15;29.79
60427;BME280;46274;47.168;27.604;2023-09-08T15:24:33;100360.31;;;26.20;29.67
60427;BME280;46274;47.168;27.604;2023-09-08T15:30:53;100298.72;;;25.60;30.20
60427;BME280;46274;47.168;27.604;2023-09-08T15:37:23;100349.34;;;25.82;30.82
60427;BME280;46274;47.168;27.604;2023-09-08T15:43:33;100436.03;;;25.89;30.23
60427;BME280;46274;47.168;27.604;2023-09-08T15:50:05;100397.69;;;26.54;31.25
60427;BME280;46274;47.168;27.604;2023-09-08T15:56:10;100433.34;;;27.50;30.95
60427;BME280;46274;47.168;27.604;2023-09-08T16:02:23;100333.75;;;27.31;31.46
60427;BME280;46274;47.168;27.604;2023-09-08T16:08:37;100422.44;;;27.84;32.06
60427;BME280;46274;47.168;27.604;2023-09-08T16:15:01;100420.41;;;28.00;33.25
60427;BME280;46274;47.168;27.604;2023-09-08T16:21:17;100412.63;;;28.02;33.80
60427;BME280;46274;47.168;27.604;2023-09-08T16:27:24;100280.63;;;26.36;33.91
60427;BME280;46274;47.168;27.604;2023-09-08T16:33:29;100368.22;;;27.40;34.40
60427;BME280;46274;47.168;27.604;2023-09-08T16:39:48;100168.13;;;25.97;34.64
60427;BME280;46274;47.168;27.604;2023-09-08T16:45:52;100304.59;;;26.57;35.48
60427;BME280;46274;47.168;27.604;2023-09-08T16:52:02;100382.78;;;23.87;35.83
60427;BME280;46274;47.168;27.604;2023-09-08T16:58:09;100397.44;;;25.93;35.54
60427;BME280;46274;47.168;27.604;2023-09-08T17:04:14;100245.47;;;25.10;36.51
60427;BME280;46274;47.168;27.604;2023-09-08T17:10:36;100391.22;;;25.81;37.14
60427;BME280;46274;47.168;27.604;2023-09-08T17:16:39;100409.66;;;21.99;41.74
60427;BME280;46274;47.168;27.604;2023-09-08T17:22:49;100394.06;;;20.87;44.32
60427;BME280;46274;47.168;27.604;2023-09-08T17:28:54;100348.69;;;20.78;42.59
60427;BME280;46274;47.168;27.604;2023-09-08T17:34:59;100384.84;;;23.19;40.00
60427;BME280;46274;47.168;27.604;2023-09-08T17:41:08;100380.53;;;23.45;39.94
60427;BME280;46274;47.168;27.604;2023-09-08T17:47:17;100401.91;;;20.42;45.68
60427;BME280;46274;47.168;27.604;2023-09-08T17:53:19;100406.69;;;19.43;47.90
60427;BME280;46274;47.168;27.604;2023-09-08T17:59:22;100337.78;;;20.95;44.39
60427;BME280;46274;47.168;27.604;2023-09-08T18:05:33;100414.97;;;22.30;42.77
60427;BME280;46274;47.168;27.604;2023-09-08T18:11:42;100389.09;;;19.25;48.64
60427;BME280;46274;47.168;27.604;2023-09-08T18:17:44;100326.06;;;20.34;45.27
60427;BME280;46274;47.168;27.604;2023-09-08T18:23:51;100319.22;;;21.38;43.29
60427;BME280;46274;47.168;27.604;2023-09-08T18:29:54;100279.75;;;18.15;50.63
60427;BME280;46274;47.168;27.604;2023-09-08T18:35:57;100296.38;;;20.36;45.67
60427;BME280;46274;47.168;27.604;2023-09-08T18:42:00;100408.13;;;19.70;48.70
60427;BME280;46274;47.168;27.604;2023-09-08T18:48:02;100401.38;;;19.85;49.62
60427;BME280;46274;47.168;27.604;2023-09-08T18:54:32;100395.50;;;20.90;46.88
60427;BME280;46274;47.168;27.604;2023-09-08T19:00:35;100374.31;;;20.48;47.20
60427;BME280;46274;47.168;27.604;2023-09-08T19:06:40;100403.41;;;20.86;46.66
60427;BME280;46274;47.168;27.604;2023-09-08T19:12:45;100400.16;;;20.47;47.30
60427;BME280;46274;47.168;27.604;2023-09-08T19:18:47;100080.31;;;18.22;47.50
60427;BME280;46274;47.168;27.604;2023-09-08T19:24:54;100341.09;;;18.52;49.90
60427;BME280;46274;47.168;27.604;2023-09-08T19:30:59;100379.78;;;19.70;48.35
60427;BME280;46274;47.168;27.604;2023-09-08T19:37:01;100292.47;;;19.10;48.75
60427;BME280;46274;47.168;27.604;2023-09-08T19:43:03;100394.88;;;19.60;48.77
60427;BME280;46274;47.168;27.604;2023-09-08T19:49:09;100384.31;;;19.39;49.20
60427;BME280;46274;47.168;27.604;2023-09-08T19:55:11;100383.50;;;19.57;48.63
60427;BME280;46274;47.168;27.604;2023-09-08T20:01:14;100386.03;;;17.61;55.38
60427;BME280;46274;47.168;27.604;2023-09-08T20:07:22;100389.91;;;17.00;57.60
60427;BME280;46274;47.168;27.604;2023-09-08T20:13:32;100331.97;;;17.04;58.25
60427;BME280;46274;47.168;27.604;2023-09-08T20:19:35;100378.38;;;17.77;56.07
60427;BME280;46274;47.168;27.604;2023-09-08T20:25:39;100323.16;;;17.02;56.51
60427;BME280;46274;47.168;27.604;2023-09-08T20:31:44;100386.25;;;16.53;61.01
60427;BME280;46274;47.168;27.604;2023-09-08T20:37:57;100190.59;;;16.18;57.27
60427;BME280;46274;47.168;27.604;2023-09-08T20:44:05;100321.38;;;16.07;62.54
60427;BME280;46274;47.168;27.604;2023-09-08T20:50:19;100373.50;;;15.99;64.83
60427;BME280;46274;47.168;27.604;2023-09-08T20:56:26;100373.81;;;15.69;65.11
60427;BME280;46274;47.168;27.604;2023-09-08T21:02:36;100306.94;;;15.24;65.18
60427;BME280;46274;47.168;27.604;2023-09-08T21:08:40;100371.75;;;15.85;64.14
60427;BME280;46274;47.168;27.604;2023-09-08T21:14:45;100312.91;;;15.89;62.49
60427;BME280;46274;47.168;27.604;2023-09-08T21:20:47;100366.00;;;16.21;61.82
60427;BME280;46274;47.168;27.604;2023-09-08T21:26:51;100366.38;;;15.29;66.39
60427;BME280;46274;47.168;27.604;2023-09-08T21:32:54;100366.44;;;15.07;68.30
60427;BME280;46274;47.168;27.604;2023-09-08T21:38:56;100358.44;;;15.34;66.92
60427;BME280;46274;47.168;27.604;2023-09-08T21:45:03;100316.38;;;15.63;64.79
60427;BME280;46274;47.168;27.604;2023-09-08T21:51:05;100290.94;;;14.36;69.08
60427;BME280;46274;47.168;27.604;2023-09-08T21:57:11;100300.91;;;14.72;67.06
60427;BME280;46274;47.168;27.604;2023-09-08T22:03:14;100355.00;;;16.01;62.54
60427;BME280;46274;47.168;27.604;2023-09-08T22:09:17;100328.88;;;15.85;62.57
60427;BME280;46274;47.168;27.604;2023-09-08T22:15:24;100333.66;;;15.70;63.40
60427;BME280;46274;47.168;27.604;2023-09-08T22:21:28;100338.03;;;14.95;67.11
60427;BME280;46274;47.168;27.604;2023-09-08T22:27:30;100332.09;;;15.54;65.03
60427;BME280;46274;47.168;27.604;2023-09-08T22:33:32;100277.66;;;13.33;72.77
60427;BME280;46274;47.168;27.604;2023-09-08T22:39:37;100280.50;;;13.97;70.95
60427;BME280;46274;47.168;27.604;2023-09-08T22:45:46;100269.38;;;13.77;71.22
60427;BME280;46274;47.168;27.604;2023-09-08T22:51:49;100207.78;;;13.76;69.41
60427;BME280;46274;47.168;27.604;2023-09-08T22:57:53;100272.53;;;13.44;73.12
60427;BME280;46274;47.168;27.604;2023-09-08T23:03:59;100181.28;;;13.63;70.06
60427;BME280;46274;47.168;27.604;2023-09-08T23:10:01;100256.97;;;13.53;71.94
60427;BME280;46274;47.168;27.604;2023-09-08T23:16:12;100232.75;;;14.01;69.60
60427;BME280;46274;47.168;27.604;2023-09-08T23:22:15;100291.78;;;14.15;70.46
60427;BME280;46274;47.168;27.604;2023-09-08T23:28:21;100266.91;;;13.82;72.10
60427;BME280;46274;47.168;27.604;2023-09-08T23:34:23;100230.59;;;13.24;73.87
60427;BME280;46274;47.168;27.604;2023-09-08T23:40:26;100101.03;;;13.87;65.84
60427;BME280;46274;47.168;27.604;2023-09-08T23:46:29;100168.91;;;14.10;66.37
60427;BME280;46274;47.168;27.604;2023-09-08T23:52:33;100259.19;;;13.49;73.48
60427;BME280;46274;47.168;27.604;2023-09-08T23:58:36;100171.81;;;14.09;68.32
